sensor_id;sensor_type;location;lat;lon;timestamp;temperature;humidity
32698;DHT22;19087;51.062;3.754;2023-09-07T00:00:15;21.00;99.90
32698;DHT22;19087;51.062;3.754;2023-09-07T00:02:41;21.00;99.90
32698;DHT22;19087;51.062;3.754;2023-09-07T00:05:07;21.00;99.90
32698;DHT22;19087;51.062;3.754;2023-09-07T00:07:33;21.00;99.90
32698;DHT22;19087;51.062;3.754;2023-09-07T00:10:01;20.90;99.90
32698;DHT22;19087;51.062;3.754;2023-09-07T00:12:27;20.90;99.90
32698;DHT22;19087;51.062;3.754;2023-09-07T00:14:53;20.90;99.90
32698;DHT22;19087;51.062;3.754;2023-09-07T00:17:22;20.80;99.90
32698;DHT22;19087;51.062;3.754;2023-09-07T00:19:48;20.80;99.90
32698;DHT22;19087;51.062;3.754;2023-09-07T00:22:17;20.80;99.90
32698;DHT22;19087;51.062;3.754;2023-09-07T00:24:43;20.70;99.90
32698;DHT22;19087;51.062;3.754;2023-09-07T00:27:09;20.70;99.90
32698;DHT22;19087;51.062;3.754;2023-09-07T00:29:37;20.60;99.90
32698;DHT22;19087;51.062;3.754;2023-09-07T00:32:04;20.60;99.90
32698;DHT22;19087;51.062;3.754;2023-09-07T00:34:31;20.60;99.90
32698;DHT22;19087;51.062;3.754;2023-09-07T00:36:57;20.60;99.90
32698;DHT22;19087;51.062;3.754;2023-09-07T00:39:23;20.60;99.90
32698;DHT22;19087;51.062;3.754;2023-09-07T00:41:49;20.50;99.90
32698;DHT22;19087;51.062;3.754;2023-09-07T00:44:15;20.50;99.90
32698;DHT22;19087;51.062;3.754;2023-09-07T00:46:41;20.50;99.90
32698;DHT22;19087;51.062;3.754;2023-09-07T00:49:11;20.50;99.90
32698;DHT22;19087;51.062;3.754;2023-09-07T00:51:38;20.50;99.90
32698;DHT22;19087;51.062;3.754;2023-09-07T00:54:04;20.50;99.90
32698;DHT22;19087;51.062;3.754;2023-09-07T00:56:31;20.50;99.90
32698;DHT22;19087;51.062;3.754;2023-09-07T00:58:58;20.50;99.90
32698;DHT22;19087;51.062;3.754;2023-09-07T01:01:26;20.40;99.90
32698;DHT22;19087;51.062;3.754;2023-09-07T01:03:52;20.50;99.90
32698;DHT22;19087;51.062;3.754;2023-09-07T01:06:27;20.40;99.90
32698;DHT22;19087;51.062;3.754;2023-09-07T01:09:00;20.30;99.90
32698;DHT22;19087;51.062;3.754;2023-09-07T01:11:36;20.30;99.90
32698;DHT22;19087;51.062;3.754;2023-09-07T01:14:02;20.20;99.90
32698;DHT22;19087;51.062;3.754;2023-09-07T01:16:31;20.20;99.90
32698;DHT22;19087;51.062;3.754;2023-09-07T01:19:00;20.20;99.90
32698;DHT22;19087;51.062;3.754;2023-09-07T01:21:26;20.10;99.90
32698;DHT22;19087;51.062;3.754;2023-09-07T01:23:54;20.10;99.90
32698;DHT22;19087;51.062;3.754;2023-09-07T01:26:20;20.00;99.90
32698;DHT22;19087;51.062;3.754;2023-09-07T01:28:46;20.00;99.90
32698;DHT22;19087;51.062;3.754;2023-09-07T01:31:12;20.00;99.90
32698;DHT22;19087;51.062;3.754;2023-09-07T01:33:38;20.00;99.90
32698;DHT22;19087;51.062;3.754;2023-09-07T01:36:04;19.90;99.90
32698;DHT22;19087;51.062;3.754;2023-09-07T01:38:30;19.90;99.90
32698;DHT22;19087;51.062;3.754;2023-09-07T01:40:56;19.90;99.90
32698;DHT22;19087;51.062;3.754;2023-09-07T01:43:22;19.90;99.90
32698;DHT22;19087;51.062;3.754;2023-09-07T01:45:48;19.90;99.90
32698;DHT22;19087;51.062;3.754;2023-09-07T01:48:14;19.80;99.90
32698;DHT22;19087;51.062;3.754;2023-09-07T01:50:40;19.80;99.90
32698;DHT22;19087;51.062;3.754;2023-09-07T01:53:06;19.80;99.90
32698;DHT22;19087;51.062;3.754;2023-09-07T01:55:33;19.80;99.90
32698;DHT22;19087;51.062;3.754;2023-09-07T01:57:59;19.80;99.90
32698;DHT22;19087;51.062;3.754;2023-09-07T02:00:25;19.70;99.90
32698;DHT22;19087;51.062;3.754;2023-09-07T02:02:50;19.70;99.90
32698;DHT22;19087;51.062;3.754;2023-09-07T02:05:16;19.70;99.90
32698;DHT22;19087;51.062;3.754;2023-09-07T02:07:43;19.70;99.90
32698;DHT22;19087;51.062;3.754;2023-09-07T02:10:10;19.60;99.90
32698;DHT22;19087;51.062;3.754;2023-09-07T02:12:36;19.60;99.90
32698;DHT22;19087;51.062;3.754;2023-09-07T02:15:04;19.60;99.90
32698;DHT22;19087;51.062;3.754;2023-09-07T02:17:30;19.60;99.90
32698;DHT22;19087;51.062;3.754;2023-09-07T02:19:56;19.50;99.90
32698;DHT22;19087;51.062;3.754;2023-09-07T02:22:22;19.50;99.90
32698;DHT22;19087;51.062;3.754;2023-09-07T02:24:47;19.50;99.90
32698;DHT22;19087;51.062;3.754;2023-09-07T02:27:14;19.40;99.90
32698;DHT22;19087;51.062;3.754;2023-09-07T02:29:40;19.50;99.90
32698;DHT22;19087;51.062;3.754;2023-09-07T02:32:06;19.40;99.90
32698;DHT22;19087;51.062;3.754;2023-09-07T02:34:32;19.30;99.90
32698;DHT22;19087;51.062;3.754;2023-09-07T02:37:02;19.30;99.90
32698;DHT22;19087;51.062;3.754;2023-09-07T02:39:28;19.30;99.90
32698;DHT22;19087;51.062;3.754;2023-09-07T02:41:54;19.30;99.90
32698;DHT22;19087;51.062;3.754;2023-09-07T02:44:19;19.30;99.90
32698;DHT22;19087;51.062;3.754;2023-09-07T02:46:46;19.30;99.90
32698;DHT22;19087;51.062;3.754;2023-09-07T02:49:13;19.20;99.90
32698;DHT22;19087;51.062;3.754;2023-09-07T02:51:38;19.20;99.90
32698;DHT22;19087;51.062;3.754;2023-09-07T02:54:05;19.10;99.90
32698;DHT22;19087;51.062;3.754;2023-09-07T02:56:30;19.10;99.90
32698;DHT22;19087;51.062;3.754;2023-09-07T02:58:56;19.10;99.90
32698;DHT22;19087;51.062;3.754;2023-09-07T03:01:22;19.10;99.90
32698;DHT22;19087;51.062;3.754;2023-09-07T03:03:49;19.10;99.90
32698;DHT22;19087;51.062;3.754;2023-09-07T03:06:15;19.00;99.90
32698;DHT22;19087;51.062;3.754;2023-09-07T03:08:42;19.00;99.90
32698;DHT22;19087;51.062;3.754;2023-09-07T03:11:09;19.00;99.90
32698;DHT22;19087;51.062;3.754;2023-09-07T03:13:35;19.00;99.90
32698;DHT22;19087;51.062;3.754;2023-09-07T03:16:02;18.90;99.90
32698;DHT22;19087;51.062;3.754;2023-09-07T03:18:28;18.90;99.90
32698;DHT22;19087;51.062;3.754;2023-09-07T03:20:55;18.90;99.90
32698;DHT22;19087;51.062;3.754;2023-09-07T03:23:21;18.90;99.90
32698;DHT22;19087;51.062;3.754;2023-09-07T03:25:48;18.90;99.90
32698;DHT22;19087;51.062;3.754;2023-09-07T03:28:14;18.90;99.90
32698;DHT22;19087;51.062;3.754;2023-09-07T03:30:40;18.90;99.90
32698;DHT22;19087;51.062;3.754;2023-09-07T03:33:06;18.80;99.90
32698;DHT22;19087;51.062;3.754;2023-09-07T03:35:32;18.90;99.90
32698;DHT22;19087;51.062;3.754;2023-09-07T03:37:58;18.80;99.90
32698;DHT22;19087;51.062;3.754;2023-09-07T03:40:24;18.80;99.90
32698;DHT22;19087;51.062;3.754;2023-09-07T03:42:49;18.80;99.90
32698;DHT22;19087;51.062;3.754;2023-09-07T03:45:15;18.70;99.90
32698;DHT22;19087;51.062;3.754;2023-09-07T03:47:42;18.70;99.90
32698;DHT22;19087;51.062;3.754;2023-09-07T03:50:08;18.70;99.90
32698;DHT22;19087;51.062;3.754;2023-09-07T03:52:35;18.70;99.90
32698;DHT22;19087;51.062;3.754;2023-09-07T03:55:01;18.70;99.90
32698;DHT22;19087;51.062;3.754;2023-09-07T03:57:27;18.70;99.90
32698;DHT22;19087;51.062;3.754;2023-09-07T03:59:53;18.60;99.90
32698;DHT22;19087;51.062;3.754;2023-09-07T04:02:23;18.60;99.90
32698;DHT22;19087;51.062;3.754;2023-09-07T04:04:53;18.60;99.90
32698;DHT22;19087;51.062;3.754;2023-09-07T04:07:19;18.60;99.90
32698;DHT22;19087;51.062;3.754;2023-09-07T04:09:45;18.60;99.90
32698;DHT22;19087;51.062;3.754;2023-09-07T04:12:11;18.60;99.90
32698;DHT22;19087;51.062;3.754;2023-09-07T04:14:37;18.50;99.90
32698;DHT22;19087;51.062;3.754;2023-09-07T04:17:04;18.50;99.90
32698;DHT22;19087;51.062;3.754;2023-09-07T04:19:30;18.50;99.90
32698;DHT22;19087;51.062;3.754;2023-09-07T04:21:57;18.50;99.90
32698;DHT22;19087;51.062;3.754;2023-09-07T04:24:23;18.50;99.90
32698;DHT22;19087;51.062;3.754;2023-09-07T04:26:48;18.50;99.90
32698;DHT22;19087;51.062;3.754;2023-09-07T04:29:15;18.50;99.90
32698;DHT22;19087;51.062;3.754;2023-09-07T04:31:41;18.50;99.90
32698;DHT22;19087;51.062;3.754;2023-09-07T04:34:07;18.50;99.90
32698;DHT22;19087;51.062;3.754;2023-09-07T04:36:33;18.50;99.90
32698;DHT22;19087;51.062;3.754;2023-09-07T04:38:59;18.40;99.90
32698;DHT22;19087;51.062;3.754;2023-09-07T04:41:25;18.40;99.90
32698;DHT22;19087;51.062;3.754;2023-09-07T04:43:50;18.30;99.90
32698;DHT22;19087;51.062;3.754;2023-09-07T04:46:16;18.30;99.90
32698;DHT22;19087;51.062;3.754;2023-09-07T04:48:44;18.30;99.90
32698;DHT22;19087;51.062;3.754;2023-09-07T04:51:10;18.20;99.90
32698;DHT22;19087;51.062;3.754;2023-09-07T04:53:38;18.20;99.90
32698;DHT22;19087;51.062;3.754;2023-09-07T04:56:06;18.20;99.90
32698;DHT22;19087;51.062;3.754;2023-09-07T04:58:34;18.20;99.90
32698;DHT22;19087;51.062;3.754;2023-09-07T05:01:04;18.20;99.90
32698;DHT22;19087;51.062;3.754;2023-09-07T05:03:30;18.20;99.90
32698;DHT22;19087;51.062;3.754;2023-09-07T05:05:57;18.20;99.90
32698;DHT22;19087;51.062;3.754;2023-09-07T05:08:24;18.20;99.90
32698;DHT22;19087;51.062;3.754;2023-09-07T05:11:01;18.20;99.90
32698;DHT22;19087;51.062;3.754;2023-09-07T05:13:27;18.20;99.90
32698;DHT22;19087;51.062;3.754;2023-09-07T05:15:54;18.20;99.90
32698;DHT22;19087;51.062;3.754;2023-09-07T05:18:21;18.20;99.90
32698;DHT22;19087;51.062;3.754;2023-09-07T05:20:48;18.10;99.90
32698;DHT22;19087;51.062;3.754;2023-09-07T05:23:15;18.10;99.90
32698;DHT22;19087;51.062;3.754;2023-09-07T05:25:47;18.10;99.90
32698;DHT22;19087;51.062;3.754;2023-09-07T05:28:14;18.10;99.90
32698;DHT22;19087;51.062;3.754;2023-09-07T05:30:40;18.20;99.90
32698;DHT22;19087;51.062;3.754;2023-09-07T05:33:07;18.20;99.90
32698;DHT22;19087;51.062;3.754;2023-09-07T05:35:33;18.20;99.90
32698;DHT22;19087;51.062;3.754;2023-09-07T05:37:59;18.30;99.90
32698;DHT22;19087;51.062;3.754;2023-09-07T05:40:25;18.30;99.90
32698;DHT22;19087;51.062;3.754;2023-09-07T05:42:51;18.30;99.90
32698;DHT22;19087;51.062;3.754;2023-09-07T05:45:17;18.40;99.90
32698;DHT22;19087;51.062;3.754;2023-09-07T05:47:43;18.50;99.90
32698;DHT22;19087;51.062;3.754;2023-09-07T05:50:09;18.40;99.90
32698;DHT22;19087;51.062;3.754;2023-09-07T05:52:35;18.40;99.90
32698;DHT22;19087;51.062;3.754;2023-09-07T05:55:01;18.40;99.90
32698;DHT22;19087;51.062;3.754;2023-09-07T05:57:26;18.30;99.90
32698;DHT22;19087;51.062;3.754;2023-09-07T05:59:53;18.50;99.90
32698;DHT22;19087;51.062;3.754;2023-09-07T06:02:18;18.60;99.90
32698;DHT22;19087;51.062;3.754;2023-09-07T06:04:46;18.60;99.90
32698;DHT22;19087;51.062;3.754;2023-09-07T06:07:12;18.60;99.90
32698;DHT22;19087;51.062;3.754;2023-09-07T06:09:38;18.70;99.90
32698;DHT22;19087;51.062;3.754;2023-09-07T06:12:04;18.80;99.90
32698;DHT22;19087;51.062;3.754;2023-09-07T06:14:29;18.70;99.90
32698;DHT22;19087;51.062;3.754;2023-09-07T06:16:55;18.80;99.90
32698;DHT22;19087;51.062;3.754;2023-09-07T06:19:21;18.90;99.90
32698;DHT22;19087;51.062;3.754;2023-09-07T06:21:47;18.80;99.90
32698;DHT22;19087;51.062;3.754;2023-09-07T06:24:12;19.00;99.90
32698;DHT22;19087;51.062;3.754;2023-09-07T06:26:40;19.10;99.90
32698;DHT22;19087;51.062;3.754;2023-09-07T06:29:05;19.20;99.90
32698;DHT22;19087;51.062;3.754;2023-09-07T06:31:32;19.30;99.90
32698;DHT22;19087;51.062;3.754;2023-09-07T06:33:58;19.40;99.90
32698;DHT22;19087;51.062;3.754;2023-09-07T06:36:23;19.40;99.90
32698;DHT22;19087;51.062;3.754;2023-09-07T06:38:50;19.50;99.90
32698;DHT22;19087;51.062;3.754;2023-09-07T06:41:15;20.00;99.90
32698;DHT22;19087;51.062;3.754;2023-09-07T06:43:42;21.20;99.90
32698;DHT22;19087;51.062;3.754;2023-09-07T06:46:09;22.80;99.90
32698;DHT22;19087;51.062;3.754;2023-09-07T06:48:35;24.30;99.90
32698;DHT22;19087;51.062;3.754;2023-09-07T06:51:02;25.80;99.90
32698;DHT22;19087;51.062;3.754;2023-09-07T06:53:29;27.00;99.90
32698;DHT22;19087;51.062;3.754;2023-09-07T06:56:03;28.40;99.90
32698;DHT22;19087;51.062;3.754;2023-09-07T06:58:29;29.30;99.90
32698;DHT22;19087;51.062;3.754;2023-09-07T07:01:04;30.30;99.50
32698;DHT22;19087;51.062;3.754;2023-09-07T07:03:31;31.10;97.30
32698;DHT22;19087;51.062;3.754;2023-09-07T07:05:57;31.70;95.80
32698;DHT22;19087;51.062;3.754;2023-09-07T07:08:23;32.40;95.00
32698;DHT22;19087;51.062;3.754;2023-09-07T07:10:49;32.90;93.80
32698;DHT22;19087;51.062;3.754;2023-09-07T07:13:15;33.50;92.50
32698;DHT22;19087;51.062;3.754;2023-09-07T07:15:41;33.90;91.70
32698;DHT22;19087;51.062;3.754;2023-09-07T07:18:08;34.20;90.80
32698;DHT22;19087;51.062;3.754;2023-09-07T07:20:39;34.60;91.30
32698;DHT22;19087;51.062;3.754;2023-09-07T07:23:05;34.70;90.40
32698;DHT22;19087;51.062;3.754;2023-09-07T07:25:36;34.90;89.70
32698;DHT22;19087;51.062;3.754;2023-09-07T07:28:06;35.00;88.90
32698;DHT22;19087;51.062;3.754;2023-09-07T07:30:36;35.20;88.20
32698;DHT22;19087;51.062;3.754;2023-09-07T07:33:03;35.40;85.70
32698;DHT22;19087;51.062;3.754;2023-09-07T07:35:37;35.50;87.90
32698;DHT22;19087;51.062;3.754;2023-09-07T07:38:03;35.60;85.80
32698;DHT22;19087;51.062;3.754;2023-09-07T07:40:33;36.00;84.80
32698;DHT22;19087;51.062;3.754;2023-09-07T07:42:59;36.00;82.20
32698;DHT22;19087;51.062;3.754;2023-09-07T07:45:25;35.90;82.70
32698;DHT22;19087;51.062;3.754;2023-09-07T07:47:51;35.70;85.20
32698;DHT22;19087;51.062;3.754;2023-09-07T07:50:18;35.50;83.70
32698;DHT22;19087;51.062;3.754;2023-09-07T07:52:44;35.50;85.90
32698;DHT22;19087;51.062;3.754;2023-09-07T07:55:10;35.60;84.00
32698;DHT22;19087;51.062;3.754;2023-09-07T07:57:36;35.70;83.80
32698;DHT22;19087;51.062;3.754;2023-09-07T08:00:04;35.60;85.90
32698;DHT22;19087;51.062;3.754;2023-09-07T08:02:31;35.60;83.00
32698;DHT22;19087;51.062;3.754;2023-09-07T08:04:59;35.30;83.20
32698;DHT22;19087;51.062;3.754;2023-09-07T08:07:25;35.30;81.90
32698;DHT22;19087;51.062;3.754;2023-09-07T08:09:52;35.10;87.50
32698;DHT22;19087;51.062;3.754;2023-09-07T08:12:17;34.90;83.70
32698;DHT22;19087;51.062;3.754;2023-09-07T08:14:43;34.70;85.00
32698;DHT22;19087;51.062;3.754;2023-09-07T08:17:09;34.40;84.20
32698;DHT22;19087;51.062;3.754;2023-09-07T08:19:35;34.20;84.60
32698;DHT22;19087;51.062;3.754;2023-09-07T08:22:01;33.90;86.00
32698;DHT22;19087;51.062;3.754;2023-09-07T08:24:31;33.70;85.20
32698;DHT22;19087;51.062;3.754;2023-09-07T08:26:57;33.50;88.50
32698;DHT22;19087;51.062;3.754;2023-09-07T08:29:27;33.50;87.10
32698;DHT22;19087;51.062;3.754;2023-09-07T08:31:53;33.30;87.00
32698;DHT22;19087;51.062;3.754;2023-09-07T08:34:20;32.60;86.90
32698;DHT22;19087;51.062;3.754;2023-09-07T08:36:47;31.60;88.60
32698;DHT22;19087;51.062;3.754;2023-09-07T08:39:15;30.90;89.20
32698;DHT22;19087;51.062;3.754;2023-09-07T08:41:43;30.30;90.40
32698;DHT22;19087;51.062;3.754;2023-09-07T08:44:16;29.50;90.90
32698;DHT22;19087;51.062;3.754;2023-09-07T08:46:43;29.00;91.80
32698;DHT22;19087;51.062;3.754;2023-09-07T08:49:10;28.60;91.70
32698;DHT22;19087;51.062;3.754;2023-09-07T08:51:37;28.00;92.50
32698;DHT22;19087;51.062;3.754;2023-09-07T08:54:06;27.60;93.20
32698;DHT22;19087;51.062;3.754;2023-09-07T08:56:34;27.50;93.50
32698;DHT22;19087;51.062;3.754;2023-09-07T08:58:59;27.20;94.00
32698;DHT22;19087;51.062;3.754;2023-09-07T09:01:26;27.20;94.10
32698;DHT22;19087;51.062;3.754;2023-09-07T09:03:57;27.00;94.50
32698;DHT22;19087;51.062;3.754;2023-09-07T09:06:23;26.80;94.40
32698;DHT22;19087;51.062;3.754;2023-09-07T09:08:51;26.70;95.10
32698;DHT22;19087;51.062;3.754;2023-09-07T09:11:20;26.60;95.20
32698;DHT22;19087;51.062;3.754;2023-09-07T09:13:46;26.70;94.80
32698;DHT22;19087;51.062;3.754;2023-09-07T09:16:13;26.70;94.80
32698;DHT22;19087;51.062;3.754;2023-09-07T09:18:54;26.70;94.60
32698;DHT22;19087;51.062;3.754;2023-09-07T09:21:24;26.70;94.60
32698;DHT22;19087;51.062;3.754;2023-09-07T09:23:52;26.70;94.90
32698;DHT22;19087;51.062;3.754;2023-09-07T09:26:19;26.70;94.80
32698;DHT22;19087;51.062;3.754;2023-09-07T09:28:45;26.60;95.20
32698;DHT22;19087;51.062;3.754;2023-09-07T09:31:11;26.70;95.30
32698;DHT22;19087;51.062;3.754;2023-09-07T09:33:41;26.70;95.40
32698;DHT22;19087;51.062;3.754;2023-09-07T09:36:08;26.80;95.40
32698;DHT22;19087;51.062;3.754;2023-09-07T09:38:34;26.90;94.70
32698;DHT22;19087;51.062;3.754;2023-09-07T09:41:01;26.90;95.10
32698;DHT22;19087;51.062;3.754;2023-09-07T09:43:28;26.80;95.20
32698;DHT22;19087;51.062;3.754;2023-09-07T09:45:55;27.00;95.20
32698;DHT22;19087;51.062;3.754;2023-09-07T09:48:22;27.00;95.30
32698;DHT22;19087;51.062;3.754;2023-09-07T09:50:49;26.90;95.00
32698;DHT22;19087;51.062;3.754;2023-09-07T09:53:18;27.00;95.30
32698;DHT22;19087;51.062;3.754;2023-09-07T09:55:49;27.00;95.20
32698;DHT22;19087;51.062;3.754;2023-09-07T09:58:15;26.90;95.10
32698;DHT22;19087;51.062;3.754;2023-09-07T10:00:46;27.00;95.30
32698;DHT22;19087;51.062;3.754;2023-09-07T10:03:25;27.10;95.00
32698;DHT22;19087;51.062;3.754;2023-09-07T10:05:53;27.10;94.90
32698;DHT22;19087;51.062;3.754;2023-09-07T10:08:20;27.20;95.10
32698;DHT22;19087;51.062;3.754;2023-09-07T10:10:52;27.10;95.70
32698;DHT22;19087;51.062;3.754;2023-09-07T10:13:32;27.20;95.70
32698;DHT22;19087;51.062;3.754;2023-09-07T10:16:06;27.30;95.50
32698;DHT22;19087;51.062;3.754;2023-09-07T10:18:36;27.30;95.40
32698;DHT22;19087;51.062;3.754;2023-09-07T10:21:02;27.40;95.40
32698;DHT22;19087;51.062;3.754;2023-09-07T10:23:39;27.50;95.70
32698;DHT22;19087;51.062;3.754;2023-09-07T10:26:17;27.50;95.90
32698;DHT22;19087;51.062;3.754;2023-09-07T10:28:44;27.60;95.60
32698;DHT22;19087;51.062;3.754;2023-09-07T10:31:16;27.70;95.60
32698;DHT22;19087;51.062;3.754;2023-09-07T10:33:43;27.80;95.10
32698;DHT22;19087;51.062;3.754;2023-09-07T10:36:20;27.90;95.20
32698;DHT22;19087;51.062;3.754;2023-09-07T10:38:48;27.90;95.40
32698;DHT22;19087;51.062;3.754;2023-09-07T10:41:14;27.90;95.60
32698;DHT22;19087;51.062;3.754;2023-09-07T10:43:51;28.00;95.40
32698;DHT22;19087;51.062;3.754;2023-09-07T10:46:22;28.00;95.30
32698;DHT22;19087;51.062;3.754;2023-09-07T10:48:53;28.10;94.90
32698;DHT22;19087;51.062;3.754;2023-09-07T10:51:19;28.00;95.10
32698;DHT22;19087;51.062;3.754;2023-09-07T10:53:46;28.00;95.40
32698;DHT22;19087;51.062;3.754;2023-09-07T10:56:12;28.10;95.30
32698;DHT22;19087;51.062;3.754;2023-09-07T10:58:38;28.40;95.10
32698;DHT22;19087;51.062;3.754;2023-09-07T11:01:10;28.40;95.20
32698;DHT22;19087;51.062;3.754;2023-09-07T11:03:37;28.50;95.50
32698;DHT22;19087;51.062;3.754;2023-09-07T11:06:18;28.50;94.80
32698;DHT22;19087;51.062;3.754;2023-09-07T11:08:47;28.50;95.20
32698;DHT22;19087;51.062;3.754;2023-09-07T11:11:13;28.70;94.90
32698;DHT22;19087;51.062;3.754;2023-09-07T11:13:39;28.70;95.00
32698;DHT22;19087;51.062;3.754;2023-09-07T11:16:09;28.80;94.70
32698;DHT22;19087;51.062;3.754;2023-09-07T11:18:35;28.70;94.20
32698;DHT22;19087;51.062;3.754;2023-09-07T11:21:01;28.80;94.30
32698;DHT22;19087;51.062;3.754;2023-09-07T11:23:30;28.80;94.40
32698;DHT22;19087;51.062;3.754;2023-09-07T11:26:06;29.00;94.50
32698;DHT22;19087;51.062;3.754;2023-09-07T11:28:32;29.10;94.40
32698;DHT22;19087;51.062;3.754;2023-09-07T11:31:00;29.20;94.60
32698;DHT22;19087;51.062;3.754;2023-09-07T11:33:30;29.20;94.40
32698;DHT22;19087;51.062;3.754;2023-09-07T11:35:56;29.20;94.50
32698;DHT22;19087;51.062;3.754;2023-09-07T11:38:29;29.20;93.90
32698;DHT22;19087;51.062;3.754;2023-09-07T11:41:00;29.20;94.00
32698;DHT22;19087;51.062;3.754;2023-09-07T11:43:25;29.30;93.90
32698;DHT22;19087;51.062;3.754;2023-09-07T11:45:52;29.30;94.10
32698;DHT22;19087;51.062;3.754;2023-09-07T11:48:19;29.30;93.70
32698;DHT22;19087;51.062;3.754;2023-09-07T11:50:44;29.40;93.40
32698;DHT22;19087;51.062;3.754;2023-09-07T11:53:10;29.40;93.50
32698;DHT22;19087;51.062;3.754;2023-09-07T11:55:36;29.40;93.40
32698;DHT22;19087;51.062;3.754;2023-09-07T11:58:03;29.30;93.30
32698;DHT22;19087;51.062;3.754;2023-09-07T12:00:31;29.50;93.50
32698;DHT22;19087;51.062;3.754;2023-09-07T12:02:57;29.60;93.20
32698;DHT22;19087;51.062;3.754;2023-09-07T12:05:23;29.60;92.70
32698;DHT22;19087;51.062;3.754;2023-09-07T12:07:48;29.60;92.90
32698;DHT22;19087;51.062;3.754;2023-09-07T12:10:14;29.80;92.70
32698;DHT22;19087;51.062;3.754;2023-09-07T12:12:40;29.80;92.50
32698;DHT22;19087;51.062;3.754;2023-09-07T12:15:06;29.80;92.60
32698;DHT22;19087;51.062;3.754;2023-09-07T12:17:32;29.80;92.20
32698;DHT22;19087;51.062;3.754;2023-09-07T12:19:59;29.80;92.30
32698;DHT22;19087;51.062;3.754;2023-09-07T12:22:26;29.90;92.30
32698;DHT22;19087;51.062;3.754;2023-09-07T12:24:51;29.90;92.60
32698;DHT22;19087;51.062;3.754;2023-09-07T12:27:17;30.10;91.90
32698;DHT22;19087;51.062;3.754;2023-09-07T12:29:44;30.10;90.80
32698;DHT22;19087;51.062;3.754;2023-09-07T12:32:09;30.10;91.30
32698;DHT22;19087;51.062;3.754;2023-09-07T12:34:35;30.10;92.00
32698;DHT22;19087;51.062;3.754;2023-09-07T12:37:01;30.00;91.70
32698;DHT22;19087;51.062;3.754;2023-09-07T12:39:31;30.10;91.50
32698;DHT22;19087;51.062;3.754;2023-09-07T12:41:57;30.30;91.00
32698;DHT22;19087;51.062;3.754;2023-09-07T12:44:23;30.20;90.80
32698;DHT22;19087;51.062;3.754;2023-09-07T12:46:48;30.20;90.60
32698;DHT22;19087;51.062;3.754;2023-09-07T12:49:14;30.30;90.80
32698;DHT22;19087;51.062;3.754;2023-09-07T12:51:42;30.40;90.80
32698;DHT22;19087;51.062;3.754;2023-09-07T12:54:08;30.40;90.20
32698;DHT22;19087;51.062;3.754;2023-09-07T12:56:34;30.40;90.40
32698;DHT22;19087;51.062;3.754;2023-09-07T12:58:59;30.20;90.20
32698;DHT22;19087;51.062;3.754;2023-09-07T13:01:26;30.20;91.20
32698;DHT22;19087;51.062;3.754;2023-09-07T13:03:52;30.50;91.20
32698;DHT22;19087;51.062;3.754;2023-09-07T13:06:17;30.60;88.90
32698;DHT22;19087;51.062;3.754;2023-09-07T13:08:46;30.70;89.50
32698;DHT22;19087;51.062;3.754;2023-09-07T13:11:11;30.90;89.70
32698;DHT22;19087;51.062;3.754;2023-09-07T13:13:37;30.90;87.50
32698;DHT22;19087;51.062;3.754;2023-09-07T13:16:04;30.90;87.20
32698;DHT22;19087;51.062;3.754;2023-09-07T13:18:30;30.90;88.30
32698;DHT22;19087;51.062;3.754;2023-09-07T13:20:57;30.90;90.00
32698;DHT22;19087;51.062;3.754;2023-09-07T13:23:28;30.90;90.10
32698;DHT22;19087;51.062;3.754;2023-09-07T13:25:55;30.90;87.90
32698;DHT22;19087;51.062;3.754;2023-09-07T13:28:21;31.00;87.10
32698;DHT22;19087;51.062;3.754;2023-09-07T13:30:48;31.00;88.10
32698;DHT22;19087;51.062;3.754;2023-09-07T13:33:14;31.10;87.30
32698;DHT22;19087;51.062;3.754;2023-09-07T13:35:39;31.10;86.60
32698;DHT22;19087;51.062;3.754;2023-09-07T13:38:05;31.00;88.10
32698;DHT22;19087;51.062;3.754;2023-09-07T13:40:31;31.00;87.70
32698;DHT22;19087;51.062;3.754;2023-09-07T13:42:57;30.90;87.00
32698;DHT22;19087;51.062;3.754;2023-09-07T13:45:22;30.90;87.90
32698;DHT22;19087;51.062;3.754;2023-09-07T13:47:48;30.90;88.20
32698;DHT22;19087;51.062;3.754;2023-09-07T13:50:15;31.00;87.30
32698;DHT22;19087;51.062;3.754;2023-09-07T13:52:41;30.90;87.80
32698;DHT22;19087;51.062;3.754;2023-09-07T13:55:07;30.90;87.80
32698;DHT22;19087;51.062;3.754;2023-09-07T13:57:33;30.90;88.90
32698;DHT22;19087;51.062;3.754;2023-09-07T14:00:00;31.00;88.50
32698;DHT22;19087;51.062;3.754;2023-09-07T14:02:26;31.10;87.60
32698;DHT22;19087;51.062;3.754;2023-09-07T14:04:51;31.10;88.80
32698;DHT22;19087;51.062;3.754;2023-09-07T14:07:17;31.10;88.30
32698;DHT22;19087;51.062;3.754;2023-09-07T14:09:43;31.10;88.10
32698;DHT22;19087;51.062;3.754;2023-09-07T14:12:09;31.00;88.20
32698;DHT22;19087;51.062;3.754;2023-09-07T14:14:42;31.10;87.70
32698;DHT22;19087;51.062;3.754;2023-09-07T14:17:17;31.10;87.90
32698;DHT22;19087;51.062;3.754;2023-09-07T14:19:42;31.10;88.70
32698;DHT22;19087;51.062;3.754;2023-09-07T14:22:11;31.20;88.20
32698;DHT22;19087;51.062;3.754;2023-09-07T14:24:37;31.10;87.60
32698;DHT22;19087;51.062;3.754;2023-09-07T14:27:03;31.10;87.50
32698;DHT22;19087;51.062;3.754;2023-09-07T14:29:29;31.10;88.10
32698;DHT22;19087;51.062;3.754;2023-09-07T14:31:55;31.20;88.50
32698;DHT22;19087;51.062;3.754;2023-09-07T14:34:21;31.30;89.60
32698;DHT22;19087;51.062;3.754;2023-09-07T14:36:47;31.40;88.40
32698;DHT22;19087;51.062;3.754;2023-09-07T14:39:13;31.40;87.20
32698;DHT22;19087;51.062;3.754;2023-09-07T14:41:39;31.40;87.90
32698;DHT22;19087;51.062;3.754;2023-09-07T14:44:05;31.50;87.00
32698;DHT22;19087;51.062;3.754;2023-09-07T14:46:32;31.40;86.50
32698;DHT22;19087;51.062;3.754;2023-09-07T14:48:58;31.40;87.20
32698;DHT22;19087;51.062;3.754;2023-09-07T14:51:23;31.50;86.80
32698;DHT22;19087;51.062;3.754;2023-09-07T14:53:49;31.40;86.10
32698;DHT22;19087;51.062;3.754;2023-09-07T14:56:15;31.50;86.40
32698;DHT22;19087;51.062;3.754;2023-09-07T14:58:41;31.60;86.70
32698;DHT22;19087;51.062;3.754;2023-09-07T15:01:06;31.60;87.20
32698;DHT22;19087;51.062;3.754;2023-09-07T15:03:33;31.60;86.30
32698;DHT22;19087;51.062;3.754;2023-09-07T15:05:58;31.60;86.30
32698;DHT22;19087;51.062;3.754;2023-09-07T15:08:24;31.60;86.80
32698;DHT22;19087;51.062;3.754;2023-09-07T15:10:50;31.60;86.60
32698;DHT22;19087;51.062;3.754;2023-09-07T15:13:16;31.60;86.30
32698;DHT22;19087;51.062;3.754;2023-09-07T15:15:41;31.60;86.30
32698;DHT22;19087;51.062;3.754;2023-09-07T15:18:09;31.80;86.20
32698;DHT22;19087;51.062;3.754;2023-09-07T15:20:35;31.80;86.30
32698;DHT22;19087;51.062;3.754;2023-09-07T15:23:01;31.90;86.70
32698;DHT22;19087;51.062;3.754;2023-09-07T15:25:27;31.80;86.70
32698;DHT22;19087;51.062;3.754;2023-09-07T15:27:56;31.80;87.00